sensor_id;sensor_type;location;lat;lon;timestamp;P1;durP1;ratioP1;P2;durP2;ratioP2
57565;SDS011;43401;43.788;-0.712;2022-07-03T00:00:30;6.40;;;1.00;;
57565;SDS011;43401;43.788;-0.712;2022-07-03T00:02:55;6.40;;;1.17;;
57565;SDS011;43401;43.788;-0.712;2022-07-03T00:05:21;4.50;;;1.10;;
57565;SDS011;43401;43.788;-0.712;2022-07-03T00:07:47;4.43;;;1.15;;
57565;SDS011;43401;43.788;-0.712;2022-07-03T00:10:13;7.07;;;1.23;;
57565;SDS011;43401;43.788;-0.712;2022-07-03T00:12:39;7.10;;;1.20;;
57565;SDS011;43401;43.788;-0.712;2022-07-03T00:15:05;9.50;;;1.50;;
57565;SDS011;43401;43.788;-0.712;2022-07-03T00:17:31;7.90;;;1.20;;
57565;SDS011;43401;43.788;-0.712;2022-07-03T00:19:57;2.85;;;1.02;;
57565;SDS011;43401;43.788;-0.712;2022-07-03T00:22:24;6.28;;;1.33;;
57565;SDS011;43401;43.788;-0.712;2022-07-03T00:24:51;5.80;;;1.20;;
57565;SDS011;43401;43.788;-0.712;2022-07-03T00:27:28;5.78;;;1.17;;
57565;SDS011;43401;43.788;-0.712;2022-07-03T00:29:58;4.22;;;0.98;;
57565;SDS011;43401;43.788;-0.712;2022-07-03T00:32:25;4.03;;;1.13;;
57565;SDS011;43401;43.788;-0.712;2022-07-03T00:34:53;7.15;;;1.10;;
57565;SDS011;43401;43.788;-0.712;2022-07-03T00:37:21;4.03;;;1.20;;
57565;SDS011;43401;43.788;-0.712;2022-07-03T00:39:48;4.97;;;1.00;;
57565;SDS011;43401;43.788;-0.712;2022-07-03T00:42:14;4.70;;;1.38;;
57565;SDS011;43401;43.788;-0.712;2022-07-03T00:44:48;4.95;;;1.23;;
57565;SDS011;43401;43.788;-0.712;2022-07-03T00:47:15;6.85;;;1.15;;
57565;SDS011;43401;43.788;-0.712;2022-07-03T00:49:44;4.07;;;1.13;;
57565;SDS011;43401;43.788;-0.712;2022-07-03T00:52:12;9.00;;;1.42;;
57565;SDS011;43401;43.788;-0.712;2022-07-03T00:54:42;7.30;;;1.02;;
57565;SDS011;43401;43.788;-0.712;2022-07-03T00:57:22;5.38;;;1.20;;
57565;SDS011;43401;43.788;-0.712;2022-07-03T00:59:49;2.85;;;0.93;;
57565;SDS011;43401;43.788;-0.712;2022-07-03T01:02:38;4.97;;;1.42;;
57565;SDS011;43401;43.788;-0.712;2022-07-03T01:07:47;2.60;;;0.98;;
57565;SDS011;43401;43.788;-0.712;2022-07-03T01:13:07;4.80;;;1.20;;
57565;SDS011;43401;43.788;-0.712;2022-07-03T01:15:41;4.35;;;1.10;;
57565;SDS011;43401;43.788;-0.712;2022-07-03T01:21:19;5.30;;;1.25;;
57565;SDS011;43401;43.788;-0.712;2022-07-03T01:27:04;6.22;;;1.27;;
57565;SDS011;43401;43.788;-0.712;2022-07-03T01:32:22;5.07;;;1.50;;
57565;SDS011;43401;43.788;-0.712;2022-07-03T01:34:52;5.20;;;1.30;;
57565;SDS011;43401;43.788;-0.712;2022-07-03T01:37:19;6.80;;;1.50;;
57565;SDS011;43401;43.788;-0.712;2022-07-03T01:39:51;5.47;;;1.35;;
57565;SDS011;43401;43.788;-0.712;2022-07-03T01:42:18;4.03;;;1.40;;
57565;SDS011;43401;43.788;-0.712;2022-07-03T01:44:45;4.18;;;1.70;;
57565;SDS011;43401;43.788;-0.712;2022-07-03T01:47:12;5.45;;;1.30;;
57565;SDS011;43401;43.788;-0.712;2022-07-03T01:49:40;2.65;;;1.35;;
57565;SDS011;43401;43.788;-0.712;2022-07-03T01:52:08;3.83;;;1.30;;
57565;SDS011;43401;43.788;-0.712;2022-07-03T01:54:35;3.78;;;1.45;;
57565;SDS011;43401;43.788;-0.712;2022-07-03T01:57:05;3.40;;;1.27;;
57565;SDS011;43401;43.788;-0.712;2022-07-03T01:59:31;7.00;;;1.40;;
57565;SDS011;43401;43.788;-0.712;2022-07-03T02:04:42;6.03;;;1.60;;
57565;SDS011;43401;43.788;-0.712;2022-07-03T02:12:27;4.53;;;1.52;;
57565;SDS011;43401;43.788;-0.712;2022-07-03T02:15:12;4.75;;;1.40;;
57565;SDS011;43401;43.788;-0.712;2022-07-03T02:17:42;4.10;;;1.70;;
57565;SDS011;43401;43.788;-0.712;2022-07-03T02:20:12;2.25;;;1.42;;
57565;SDS011;43401;43.788;-0.712;2022-07-03T02:22:41;5.30;;;1.40;;
57565;SDS011;43401;43.788;-0.712;2022-07-03T02:25:19;6.55;;;1.67;;
57565;SDS011;43401;43.788;-0.712;2022-07-03T02:27:56;7.20;;;1.60;;
57565;SDS011;43401;43.788;-0.712;2022-07-03T02:30:32;4.07;;;1.50;;
57565;SDS011;43401;43.788;-0.712;2022-07-03T02:33:01;5.57;;;1.70;;
57565;SDS011;43401;43.788;-0.712;2022-07-03T02:35:31;3.03;;;1.48;;
57565;SDS011;43401;43.788;-0.712;2022-07-03T02:38:11;8.23;;;2.15;;
57565;SDS011;43401;43.788;-0.712;2022-07-03T02:43:38;4.45;;;1.90;;
57565;SDS011;43401;43.788;-0.712;2022-07-03T02:49:43;3.40;;;1.67;;
57565;SDS011;43401;43.788;-0.712;2022-07-03T02:57:57;2.83;;;1.48;;
57565;SDS011;43401;43.788;-0.712;2022-07-03T03:00:39;8.35;;;1.58;;
57565;SDS011;43401;43.788;-0.712;2022-07-03T03:03:14;3.60;;;1.60;;
57565;SDS011;43401;43.788;-0.712;2022-07-03T03:05:45;3.35;;;1.45;;
57565;SDS011;43401;43.788;-0.712;2022-07-03T03:08:16;5.03;;;1.67;;
57565;SDS011;43401;43.788;-0.712;2022-07-03T03:11:05;7.78;;;1.70;;
57565;SDS011;43401;43.788;-0.712;2022-07-03T03:13:33;4.88;;;1.63;;
57565;SDS011;43401;43.788;-0.712;2022-07-03T03:18:36;6.15;;;1.73;;
57565;SDS011;43401;43.788;-0.712;2022-07-03T03:21:06;6.85;;;1.85;;
57565;SDS011;43401;43.788;-0.712;2022-07-03T03:26:14;2.63;;;1.60;;
57565;SDS011;43401;43.788;-0.712;2022-07-03T03:28:42;5.30;;;2.00;;
57565;SDS011;43401;43.788;-0.712;2022-07-03T03:31:08;4.15;;;2.08;;
57565;SDS011;43401;43.788;-0.712;2022-07-03T03:33:38;8.88;;;2.25;;
57565;SDS011;43401;43.788;-0.712;2022-07-03T03:36:11;5.63;;;1.95;;
57565;SDS011;43401;43.788;-0.712;2022-07-03T03:38:38;2.92;;;1.60;;
57565;SDS011;43401;43.788;-0.712;2022-07-03T03:41:05;3.97;;;1.95;;
57565;SDS011;43401;43.788;-0.712;2022-07-03T03:43:32;5.50;;;2.20;;
57565;SDS011;43401;43.788;-0.712;2022-07-03T03:45:59;5.65;;;1.90;;
57565;SDS011;43401;43.788;-0.712;2022-07-03T03:48:29;3.80;;;2.10;;
57565;SDS011;43401;43.788;-0.712;2022-07-03T03:50:57;6.63;;;2.10;;
57565;SDS011;43401;43.788;-0.712;2022-07-03T03:53:24;4.50;;;2.83;;
57565;SDS011;43401;43.788;-0.712;2022-07-03T03:58:46;6.35;;;2.60;;
57565;SDS011;43401;43.788;-0.712;2022-07-03T04:01:12;6.47;;;2.53;;
57565;SDS011;43401;43.788;-0.712;2022-07-03T04:03:38;6.00;;;2.97;;
57565;SDS011;43401;43.788;-0.712;2022-07-03T04:06:05;9.90;;;3.10;;
57565;SDS011;43401;43.788;-0.712;2022-07-03T04:08:32;7.03;;;2.90;;
57565;SDS011;43401;43.788;-0.712;2022-07-03T04:10:58;7.47;;;3.38;;
57565;SDS011;43401;43.788;-0.712;2022-07-03T04:13:24;8.57;;;3.10;;
57565;SDS011;43401;43.788;-0.712;2022-07-03T04:15:51;5.13;;;2.65;;
57565;SDS011;43401;43.788;-0.712;2022-07-03T04:18:17;6.10;;;2.80;;
57565;SDS011;43401;43.788;-0.712;2022-07-03T04:20:44;8.48;;;2.38;;
57565;SDS011;43401;43.788;-0.712;2022-07-03T04:23:10;4.60;;;2.50;;
57565;SDS011;43401;43.788;-0.712;2022-07-03T04:25:35;6.15;;;2.50;;
57565;SDS011;43401;43.788;-0.712;2022-07-03T04:28:01;6.22;;;2.20;;
57565;SDS011;43401;43.788;-0.712;2022-07-03T04:30:27;6.95;;;2.40;;
57565;SDS011;43401;43.788;-0.712;2022-07-03T04:32:53;3.53;;;1.80;;
57565;SDS011;43401;43.788;-0.712;2022-07-03T04:35:18;5.05;;;1.98;;
57565;SDS011;43401;43.788;-0.712;2022-07-03T04:37:44;5.28;;;1.70;;
57565;SDS011;43401;43.788;-0.712;2022-07-03T04:40:10;5.72;;;1.90;;
57565;SDS011;43401;43.788;-0.712;2022-07-03T04:42:36;4.82;;;1.77;;
57565;SDS011;43401;43.788;-0.712;2022-07-03T04:45:03;6.10;;;1.98;;
57565;SDS011;43401;43.788;-0.712;2022-07-03T04:47:29;2.47;;;1.40;;
57565;SDS011;43401;43.788;-0.712;2022-07-03T04:49:54;6.03;;;1.48;;
57565;SDS011;43401;43.788;-0.712;2022-07-03T04:52:20;5.53;;;1.40;;
57565;SDS011;43401;43.788;-0.712;2022-07-03T04:54:46;4.43;;;1.33;;
57565;SDS011;43401;43.788;-0.712;2022-07-03T04:57:11;5.10;;;1.45;;
57565;SDS011;43401;43.788;-0.712;2022-07-03T04:59:37;3.00;;;1.80;;
57565;SDS011;43401;43.788;-0.712;2022-07-03T05:02:03;4.40;;;1.98;;
57565;SDS011;43401;43.788;-0.712;2022-07-03T05:04:29;5.70;;;2.25;;
57565;SDS011;43401;43.788;-0.712;2022-07-03T05:06:55;4.35;;;2.30;;
57565;SDS011;43401;43.788;-0.712;2022-07-03T05:09:20;4.00;;;2.03;;
57565;SDS011;43401;43.788;-0.712;2022-07-03T05:11:46;5.50;;;2.40;;
57565;SDS011;43401;43.788;-0.712;2022-07-03T05:14:12;7.10;;;2.92;;
57565;SDS011;43401;43.788;-0.712;2022-07-03T05:16:38;5.75;;;3.03;;
57565;SDS011;43401;43.788;-0.712;2022-07-03T05:19:03;5.07;;;3.03;;
57565;SDS011;43401;43.788;-0.712;2022-07-03T05:21:30;6.82;;;3.25;;
57565;SDS011;43401;43.788;-0.712;2022-07-03T05:23:57;7.22;;;3.20;;
57565;SDS011;43401;43.788;-0.712;2022-07-03T05:26:22;11.18;;;4.38;;
57565;SDS011;43401;43.788;-0.712;2022-07-03T05:28:48;7.80;;;3.90;;
57565;SDS011;43401;43.788;-0.712;2022-07-03T05:31:14;7.47;;;3.88;;
57565;SDS011;43401;43.788;-0.712;2022-07-03T05:33:40;9.48;;;3.95;;
57565;SDS011;43401;43.788;-0.712;2022-07-03T05:36:05;10.10;;;3.70;;
57565;SDS011;43401;43.788;-0.712;2022-07-03T05:38:31;7.15;;;4.13;;
57565;SDS011;43401;43.788;-0.712;2022-07-03T05:41:16;9.20;;;4.55;;
57565;SDS011;43401;43.788;-0.712;2022-07-03T05:43:42;7.72;;;4.30;;
57565;SDS011;43401;43.788;-0.712;2022-07-03T05:46:08;7.22;;;4.72;;
57565;SDS011;43401;43.788;-0.712;2022-07-03T05:48:34;12.88;;;5.20;;
57565;SDS011;43401;43.788;-0.712;2022-07-03T05:51:00;12.43;;;7.03;;
57565;SDS011;43401;43.788;-0.712;2022-07-03T05:53:26;13.38;;;7.10;;
57565;SDS011;43401;43.788;-0.712;2022-07-03T05:55:51;15.30;;;8.18;;
57565;SDS011;43401;43.788;-0.712;2022-07-03T05:58:17;16.50;;;7.88;;
57565;SDS011;43401;43.788;-0.712;2022-07-03T06:00:43;11.02;;;6.78;;
57565;SDS011;43401;43.788;-0.712;2022-07-03T06:03:09;10.98;;;7.40;;
57565;SDS011;43401;43.788;-0.712;2022-07-03T06:05:35;14.13;;;6.35;;
57565;SDS011;43401;43.788;-0.712;2022-07-03T06:08:01;13.38;;;6.13;;
57565;SDS011;43401;43.788;-0.712;2022-07-03T06:10:28;11.70;;;6.45;;
57565;SDS011;43401;43.788;-0.712;2022-07-03T06:12:54;12.30;;;6.03;;
57565;SDS011;43401;43.788;-0.712;2022-07-03T06:15:20;9.98;;;5.68;;
57565;SDS011;43401;43.788;-0.712;2022-07-03T06:17:45;10.15;;;5.95;;
57565;SDS011;43401;43.788;-0.712;2022-07-03T06:20:11;9.52;;;6.00;;
57565;SDS011;43401;43.788;-0.712;2022-07-03T06:22:38;17.42;;;6.55;;
57565;SDS011;43401;43.788;-0.712;2022-07-03T06:25:05;18.60;;;7.00;;
57565;SDS011;43401;43.788;-0.712;2022-07-03T06:27:31;11.48;;;6.50;;
57565;SDS011;43401;43.788;-0.712;2022-07-03T06:29:57;14.02;;;6.72;;
57565;SDS011;43401;43.788;-0.712;2022-07-03T06:32:23;12.30;;;6.75;;
57565;SDS011;43401;43.788;-0.712;2022-07-03T06:34:49;10.45;;;6.40;;
57565;SDS011;43401;43.788;-0.712;2022-07-03T06:37:15;12.27;;;6.53;;
57565;SDS011;43401;43.788;-0.712;2022-07-03T06:39:41;9.77;;;4.93;;
57565;SDS011;43401;43.788;-0.712;2022-07-03T06:42:06;7.72;;;5.13;;
57565;SDS011;43401;43.788;-0.712;2022-07-03T06:44:33;10.50;;;4.88;;
57565;SDS011;43401;43.788;-0.712;2022-07-03T06:46:58;8.80;;;4.32;;
57565;SDS011;43401;43.788;-0.712;2022-07-03T06:49:28;8.18;;;4.40;;
57565;SDS011;43401;43.788;-0.712;2022-07-03T06:51:54;9.45;;;4.60;;
57565;SDS011;43401;43.788;-0.712;2022-07-03T06:54:20;5.85;;;3.53;;
57565;SDS011;43401;43.788;-0.712;2022-07-03T06:56:45;7.57;;;2.70;;
57565;SDS011;43401;43.788;-0.712;2022-07-03T06:59:11;7.10;;;2.42;;
57565;SDS011;43401;43.788;-0.712;2022-07-03T07:01:37;5.22;;;2.22;;
57565;SDS011;43401;43.788;-0.712;2022-07-03T07:04:03;9.50;;;2.65;;
57565;SDS011;43401;43.788;-0.712;2022-07-03T07:06:28;4.10;;;2.30;;
57565;SDS011;43401;43.788;-0.712;2022-07-03T07:08:54;5.65;;;1.88;;
57565;SDS011;43401;43.788;-0.712;2022-07-03T07:11:20;4.55;;;1.73;;
57565;SDS011;43401;43.788;-0.712;2022-07-03T07:13:46;4.47;;;2.00;;
57565;SDS011;43401;43.788;-0.712;2022-07-03T07:16:12;4.38;;;1.95;;
57565;SDS011;43401;43.788;-0.712;2022-07-03T07:18:39;5.40;;;2.08;;
57565;SDS011;43401;43.788;-0.712;2022-07-03T07:21:05;4.25;;;2.05;;
57565;SDS011;43401;43.788;-0.712;2022-07-03T07:23:31;6.43;;;1.75;;
57565;SDS011;43401;43.788;-0.712;2022-07-03T07:25:57;4.47;;;1.90;;
57565;SDS011;43401;43.788;-0.712;2022-07-03T07:28:23;4.63;;;1.90;;
57565;SDS011;43401;43.788;-0.712;2022-07-03T07:30:48;8.52;;;1.70;;
57565;SDS011;43401;43.788;-0.712;2022-07-03T07:33:14;4.97;;;2.08;;
57565;SDS011;43401;43.788;-0.712;2022-07-03T07:35:40;8.02;;;2.13;;
57565;SDS011;43401;43.788;-0.712;2022-07-03T07:38:06;5.15;;;2.38;;
57565;SDS011;43401;43.788;-0.712;2022-07-03T07:40:31;2.78;;;1.73;;
57565;SDS011;43401;43.788;-0.712;2022-07-03T07:42:57;7.63;;;1.75;;
57565;SDS011;43401;43.788;-0.712;2022-07-03T07:45:23;4.07;;;1.60;;
57565;SDS011;43401;43.788;-0.712;2022-07-03T07:47:48;9.77;;;2.20;;
57565;SDS011;43401;43.788;-0.712;2022-07-03T07:50:14;5.40;;;1.70;;
57565;SDS011;43401;43.788;-0.712;2022-07-03T07:52:40;2.88;;;1.33;;
57565;SDS011;43401;43.788;-0.712;2022-07-03T07:55:06;3.75;;;1.48;;
57565;SDS011;43401;43.788;-0.712;2022-07-03T07:57:38;5.60;;;1.42;;
57565;SDS011;43401;43.788;-0.712;2022-07-03T08:00:06;4.10;;;1.35;;
57565;SDS011;43401;43.788;-0.712;2022-07-03T08:02:36;3.90;;;1.10;;
57565;SDS011;43401;43.788;-0.712;2022-07-03T08:05:22;2.83;;;1.33;;
57565;SDS011;43401;43.788;-0.712;2022-07-03T08:10:28;4.03;;;1.40;;
57565;SDS011;43401;43.788;-0.712;2022-07-03T08:12:54;5.13;;;1.50;;
57565;SDS011;43401;43.788;-0.712;2022-07-03T08:15:20;5.75;;;1.52;;
57565;SDS011;43401;43.788;-0.712;2022-07-03T08:17:46;4.97;;;1.15;;
57565;SDS011;43401;43.788;-0.712;2022-07-03T08:20:11;3.72;;;1.38;;
57565;SDS011;43401;43.788;-0.712;2022-07-03T08:22:37;4.13;;;1.20;;
57565;SDS011;43401;43.788;-0.712;2022-07-03T08:25:03;3.55;;;1.38;;
57565;SDS011;43401;43.788;-0.712;2022-07-03T08:27:29;3.72;;;1.25;;
57565;SDS011;43401;43.788;-0.712;2022-07-03T08:29:54;6.57;;;1.50;;
57565;SDS011;43401;43.788;-0.712;2022-07-03T08:32:20;4.63;;;1.33;;
57565;SDS011;43401;43.788;-0.712;2022-07-03T08:34:46;4.68;;;1.30;;
57565;SDS011;43401;43.788;-0.712;2022-07-03T08:37:11;5.43;;;1.60;;
57565;SDS011;43401;43.788;-0.712;2022-07-03T08:39:37;5.25;;;1.67;;
57565;SDS011;43401;43.788;-0.712;2022-07-03T08:42:04;2.25;;;1.13;;
57565;SDS011;43401;43.788;-0.712;2022-07-03T08:44:31;5.47;;;1.55;;
57565;SDS011;43401;43.788;-0.712;2022-07-03T08:47:00;2.80;;;1.10;;
57565;SDS011;43401;43.788;-0.712;2022-07-03T08:49:28;4.40;;;1.38;;
57565;SDS011;43401;43.788;-0.712;2022-07-03T08:51:54;2.08;;;1.23;;
57565;SDS011;43401;43.788;-0.712;2022-07-03T08:54:20;5.93;;;1.15;;
57565;SDS011;43401;43.788;-0.712;2022-07-03T08:56:46;4.38;;;1.23;;
57565;SDS011;43401;43.788;-0.712;2022-07-03T08:59:12;3.47;;;1.10;;
57565;SDS011;43401;43.788;-0.712;2022-07-03T09:01:39;2.45;;;1.23;;
57565;SDS011;43401;43.788;-0.712;2022-07-03T09:04:10;5.18;;;1.20;;
57565;SDS011;43401;43.788;-0.712;2022-07-03T09:06:38;3.85;;;1.00;;
57565;SDS011;43401;43.788;-0.712;2022-07-03T09:09:06;3.35;;;1.20;;
57565;SDS011;43401;43.788;-0.712;2022-07-03T09:11:33;3.53;;;1.00;;
57565;SDS011;43401;43.788;-0.712;2022-07-03T09:14:03;1.38;;;0.88;;
57565;SDS011;43401;43.788;-0.712;2022-07-03T09:16:31;4.07;;;1.15;;
57565;SDS011;43401;43.788;-0.712;2022-07-03T09:19:01;2.60;;;1.00;;
57565;SDS011;43401;43.788;-0.712;2022-07-03T09:24:07;4.50;;;1.10;;
57565;SDS011;43401;43.788;-0.712;2022-07-03T09:26:34;1.40;;;1.00;;
57565;SDS011;43401;43.788;-0.712;2022-07-03T09:29:01;3.25;;;0.90;;
57565;SDS011;43401;43.788;-0.712;2022-07-03T09:31:28;2.58;;;1.00;;
57565;SDS011;43401;43.788;-0.712;2022-07-03T09:34:04;3.00;;;1.27;;
57565;SDS011;43401;43.788;-0.712;2022-07-03T09:36:41;3.42;;;1.00;;
57565;SDS011;43401;43.788;-0.712;2022-07-03T09:41:57;2.75;;;0.70;;
57565;SDS011;43401;43.788;-0.712;2022-07-03T09:47:09;4.53;;;1.00;;
57565;SDS011;43401;43.788;-0.712;2022-07-03T09:52:40;1.88;;;0.95;;
57565;SDS011;43401;43.788;-0.712;2022-07-03T09:57:40;2.55;;;0.85;;
57565;SDS011;43401;43.788;-0.712;2022-07-03T10:00:14;2.28;;;0.98;;
57565;SDS011;43401;43.788;-0.712;2022-07-03T10:03:00;1.90;;;0.98;;
57565;SDS011;43401;43.788;-0.712;2022-07-03T10:10:31;1.70;;;0.65;;
57565;SDS011;43401;43.788;-0.712;2022-07-03T10:12:58;2.22;;;0.98;;
57565;SDS011;43401;43.788;-0.712;2022-07-03T10:15:25;2.92;;;0.80;;
57565;SDS011;43401;43.788;-0.712;2022-07-03T10:17:54;3.42;;;0.70;;
57565;SDS011;43401;43.788;-0.712;2022-07-03T10:20:23;2.25;;;0.60;;
57565;SDS011;43401;43.788;-0.712;2022-07-03T10:22:52;2.63;;;0.98;;
57565;SDS011;43401;43.788;-0.712;2022-07-03T10:25:19;2.22;;;0.63;;
57565;SDS011;43401;43.788;-0.712;2022-07-03T10:27:45;2.70;;;0.90;;
57565;SDS011;43401;43.788;-0.712;2022-07-03T10:30:14;2.22;;;0.90;;
57565;SDS011;43401;43.788;-0.712;2022-07-03T10:32:40;1.42;;;0.73;;
57565;SDS011;43401;43.788;-0.712;2022-07-03T10:35:10;1.60;;;0.95;;
57565;SDS011;43401;43.788;-0.712;2022-07-03T10:37:43;1.67;;;0.75;;
57565;SDS011;43401;43.788;-0.712;2022-07-03T10:43:40;2.45;;;0.75;;
57565;SDS011;43401;43.788;-0.712;2022-07-03T10:46:26;2.00;;;0.85;;
57565;SDS011;43401;43.788;-0.712;2022-07-03T10:51:20;2.40;;;0.80;;
57565;SDS011;43401;43.788;-0.712;2022-07-03T10:53:47;1.45;;;0.80;;
57565;SDS011;43401;43.788;-0.712;2022-07-03T10:56:13;2.33;;;0.77;;
57565;SDS011;43401;43.788;-0.712;2022-07-03T10:58:58;2.78;;;0.85;;
57565;SDS011;43401;43.788;-0.712;2022-07-03T11:09:12;2.17;;;0.90;;
57565;SDS011;43401;43.788;-0.712;2022-07-03T11:11:42;1.95;;;0.70;;
57565;SDS011;43401;43.788;-0.712;2022-07-03T11:14:25;1.33;;;0.65;;
57565;SDS011;43401;43.788;-0.712;2022-07-03T11:19:47;2.22;;;0.88;;
57565;SDS011;43401;43.788;-0.712;2022-07-03T11:22:44;2.58;;;0.82;;
57565;SDS011;43401;43.788;-0.712;2022-07-03T11:25:25;4.40;;;0.82;;
57565;SDS011;43401;43.788;-0.712;2022-07-03T11:27:50;5.10;;;0.90;;
57565;SDS011;43401;43.788;-0.712;2022-07-03T11:30:17;1.40;;;0.65;;
57565;SDS011;43401;43.788;-0.712;2022-07-03T11:38:28;2.70;;;1.10;;
57565;SDS011;43401;43.788;-0.712;2022-07-03T11:40:56;1.17;;;0.55;;
57565;SDS011;43401;43.788;-0.712;2022-07-03T11:43:23;1.33;;;0.70;;
57565;SDS011;43401;43.788;-0.712;2022-07-03T11:45:49;2.58;;;0.80;;
57565;SDS011;43401;43.788;-0.712;2022-07-03T11:48:17;4.43;;;0.80;;
57565;SDS011;43401;43.788;-0.712;2022-07-03T11:50:45;3.65;;;0.70;;
57565;SDS011;43401;43.788;-0.712;2022-07-03T11:53:18;8.02;;;0.95;;
57565;SDS011;43401;43.788;-0.712;2022-07-03T11:55:54;2.08;;;0.57;;
57565;SDS011;43401;43.788;-0.712;2022-07-03T11:58:22;3.95;;;1.00;;
57565;SDS011;43401;43.788;-0.712;2022-07-03T12:00:49;2.92;;;0.73;;
57565;SDS011;43401;43.788;-0.712;2022-07-03T12:03:23;5.13;;;0.85;;
57565;SDS011;43401;43.788;-0.712;2022-07-03T12:08:21;2.17;;;0.52;;
57565;SDS011;43401;43.788;-0.712;2022-07-03T12:10:48;2.85;;;0.70;;
57565;SDS011;43401;43.788;-0.712;2022-07-03T12:13:18;1.50;;;0.70;;
57565;SDS011;43401;43.788;-0.712;2022-07-03T12:15:45;5.63;;;0.80;;
57565;SDS011;43401;43.788;-0.712;2022-07-03T12:18:12;3.33;;;1.27;;
57565;SDS011;43401;43.788;-0.712;2022-07-03T12:20:39;3.50;;;0.93;;
57565;SDS011;43401;43.788;-0.712;2022-07-03T12:23:04;2.47;;;0.75;;
57565;SDS011;43401;43.788;-0.712;2022-07-03T12:25:30;2.03;;;0.80;;
57565;SDS011;43401;43.788;-0.712;2022-07-03T12:27:56;2.83;;;0.88;;
57565;SDS011;43401;43.788;-0.712;2022-07-03T12:30:22;3.35;;;0.70;;
57565;SDS011;43401;43.788;-0.712;2022-07-03T12:32:50;3.72;;;1.13;;
57565;SDS011;43401;43.788;-0.712;2022-07-03T12:35:23;2.85;;;0.93;;
57565;SDS011;43401;43.788;-0.712;2022-07-03T12:37:50;1.83;;;0.63;;
57565;SDS011;43401;43.788;-0.712;2022-07-03T12:40:16;2.42;;;0.80;;
57565;SDS011;43401;43.788;-0.712;2022-07-03T12:42:44;3.05;;;0.80;;
57565;SDS011;43401;43.788;-0.712;2022-07-03T12:45:11;2.40;;;0.73;;
57565;SDS011;43401;43.788;-0.712;2022-07-03T12:47:38;1.85;;;0.80;;
57565;SDS011;43401;43.788;-0.712;2022-07-03T12:50:05;2.08;;;0.75;;
57565;SDS011;43401;43.788;-0.712;2022-07-03T12:52:32;3.80;;;0.80;;
57565;SDS011;43401;43.788;-0.712;2022-07-03T12:55:06;1.77;;;0.90;;
57565;SDS011;43401;43.788;-0.712;2022-07-03T12:57:47;1.13;;;0.70;;
57565;SDS011;43401;43.788;-0.712;2022-07-03T13:00:41;4.47;;;0.80;;
57565;SDS011;43401;43.788;-0.712;2022-07-03T13:03:08;3.63;;;0.90;;
57565;SDS011;43401;43.788;-0.712;2022-07-03T13:08:16;1.42;;;0.60;;
57565;SDS011;43401;43.788;-0.712;2022-07-03T13:10:41;2.28;;;0.90;;
57565;SDS011;43401;43.788;-0.712;2022-07-03T13:13:07;2.78;;;0.90;;
57565;SDS011;43401;43.788;-0.712;2022-07-03T13:15:33;2.42;;;0.80;;
57565;SDS011;43401;43.788;-0.712;2022-07-03T13:17:59;1.98;;;0.90;;
57565;SDS011;43401;43.788;-0.712;2022-07-03T13:20:27;2.28;;;0.70;;
57565;SDS011;43401;43.788;-0.712;2022-07-03T13:23:02;1.27;;;0.70;;
57565;SDS011;43401;43.788;-0.712;2022-07-03T13:25:29;0.85;;;0.60;;
57565;SDS011;43401;43.788;-0.712;2022-07-03T13:28:09;2.05;;;0.60;;
57565;SDS011;43401;43.788;-0.712;2022-07-03T13:30:37;1.50;;;0.80;;
57565;SDS011;43401;43.788;-0.712;2022-07-03T13:33:04;2.50;;;0.77;;
57565;SDS011;43401;43.788;-0.712;2022-07-03T13:35:29;2.25;;;0.80;;
57565;SDS011;43401;43.788;-0.712;2022-07-03T13:37:55;1.60;;;0.80;;
57565;SDS011;43401;43.788;-0.712;2022-07-03T13:40:21;1.40;;;0.70;;
57565;SDS011;43401;43.788;-0.712;2022-07-03T13:42:48;2.65;;;0.93;;
57565;SDS011;43401;43.788;-0.712;2022-07-03T13:45:13;3.72;;;0.80;;
57565;SDS011;43401;43.788;-0.712;2022-07-03T13:47:39;2.28;;;0.85;;
57565;SDS011;43401;43.788;-0.712;2022-07-03T13:50:05;0.68;;;0.60;;
57565;SDS011;43401;43.788;-0.712;2022-07-03T13:52:31;1.05;;;0.60;;
57565;SDS011;43401;43.788;-0.712;2022-07-03T13:54:57;1.63;;;0.93;;
57565;SDS011;43401;43.788;-0.712;2022-07-03T13:57:23;3.53;;;0.90;;
57565;SDS011;43401;43.788;-0.712;2022-07-03T13:59:48;3.13;;;0.70;;
57565;SDS011;43401;43.788;-0.712;2022-07-03T14:02:14;3.15;;;1.08;;
57565;SDS011;43401;43.788;-0.712;2022-07-03T14:04:40;0.75;;;0.65;;
57565;SDS011;43401;43.788;-0.712;2022-07-03T14:07:07;2.03;;;0.85;;
57565;SDS011;43401;43.788;-0.712;2022-07-03T14:09:33;3.85;;;1.15;;
57565;SDS011;43401;43.788;-0.712;2022-07-03T14:11:59;2.30;;;0.82;;
57565;SDS011;43401;43.788;-0.712;2022-07-03T14:14:25;2.40;;;0.77;;
57565;SDS011;43401;43.788;-0.712;2022-07-03T14:16:51;3.17;;;0.70;;
57565;SDS011;43401;43.788;-0.712;2022-07-03T14:19:17;2.97;;;0.90;;
57565;SDS011;43401;43.788;-0.712;2022-07-03T14:21:44;2.60;;;0.80;;
57565;SDS011;43401;43.788;-0.712;2022-07-03T14:24:09;3.92;;;0.73;;
57565;SDS011;43401;43.788;-0.712;2022-07-03T14:26:38;1.98;;;0.77;;
57565;SDS011;43401;43.788;-0.712;2022-07-03T14:29:22;1.30;;;0.70;;
57565;SDS011;43401;43.788;-0.712;2022-07-03T14:32:06;2.63;;;0.77;;
57565;SDS011;43401;43.788;-0.712;2022-07-03T14:34:51;1.88;;;0.77;;
57565;SDS011;43401;43.788;-0.712;2022-07-03T14:37:16;4.70;;;0.80;;
57565;SDS011;43401;43.788;-0.712;2022-07-03T14:39:47;1.85;;;0.60;;
57565;SDS011;43401;43.788;-0.712;2022-07-03T14:42:13;2.63;;;0.90;;
57565;SDS011;43401;43.788;-0.712;2022-07-03T14:44:39;1.38;;;0.90;;
57565;SDS011;43401;43.788;-0.712;2022-07-03T14:47:05;4.13;;;1.00;;
57565;SDS011;43401;43.788;-0.712;2022-07-03T14:49:31;2.42;;;1.00;;
57565;SDS011;43401;43.788;-0.712;2022-07-03T14:52:00;1.92;;;0.70;;
57565;SDS011;43401;43.788;-0.712;2022-07-03T14:54:26;3.78;;;0.88;;
57565;SDS011;43401;43.788;-0.712;2022-07-03T14:56:53;3.20;;;0.90;;
57565;SDS011;43401;43.788;-0.712;2022-07-03T15:02:19;1.95;;;0.70;;
57565;SDS011;43401;43.788;-0.712;2022-07-03T15:07:31;1.83;;;0.90;;
57565;SDS011;43401;43.788;-0.712;2022-07-03T15:10:09;2.90;;;0.95;;
57565;SDS011;43401;43.788;-0.712;2022-07-03T15:12:38;2.88;;;0.85;;
57565;SDS011;43401;43.788;-0.712;2022-07-03T15:15:10;1.70;;;0.80;;
57565;SDS011;43401;43.788;-0.712;2022-07-03T15:17:37;3.72;;;0.65;;
57565;SDS011;43401;43.788;-0.712;2022-07-03T15:20:03;1.63;;;0.82;;
57565;SDS011;43401;43.788;-0.712;2022-07-03T15:22:30;3.78;;;0.80;;
57565;SDS011;43401;43.788;-0.712;2022-07-03T15:24:57;4.57;;;1.00;;
57565;SDS011;43401;43.788;-0.712;2022-07-03T15:27:24;2.13;;;0.85;;
57565;SDS011;43401;43.788;-0.712;2022-07-03T15:29:52;2.13;;;0.60;;
57565;SDS011;43401;43.788;-0.712;2022-07-03T15:32:19;2.10;;;1.00;;
57565;SDS011;43401;43.788;-0.712;2022-07-03T15:34:45;3.10;;;0.90;;
57565;SDS011;43401;43.788;-0.712;2022-07-03T15:37:26;3.58;;;0.90;;
57565;SDS011;43401;43.788;-0.712;2022-07-03T15:40:02;5.28;;;1.00;;
57565;SDS011;43401;43.788;-0.712;2022-07-03T15:45:03;2.78;;;1.00;;
57565;SDS011;43401;43.788;-0.712;2022-07-03T15:51:05;3.08;;;0.93;;
57565;SDS011;43401;43.788;-0.712;2022-07-03T15:53:24;4.93;;;1.27;;
57565;SDS011;43401;43.788;-0.712;2022-07-03T15:55:54;3.35;;;0.90;;
57565;SDS011;43401;43.788;-0.712;2022-07-03T15:58:26;2.45;;;0.88;;
57565;SDS011;43401;43.788;-0.712;2022-07-03T16:00:55;4.60;;;1.10;;
57565;SDS011;43401;43.788;-0.712;2022-07-03T16:03:58;4.40;;;0.80;;
57565;SDS011;43401;43.788;-0.712;2022-07-03T16:06:29;5.35;;;1.10;;
57565;SDS011;43401;43.788;-0.712;2022-07-03T16:08:55;3.83;;;1.20;;
57565;SDS011;43401;43.788;-0.712;2022-07-03T16:11:21;2.83;;;1.02;;
57565;SDS011;43401;43.788;-0.712;2022-07-03T16:13:48;3.80;;;0.88;;
57565;SDS011;43401;43.788;-0.712;2022-07-03T16:16:18;4.03;;;0.98;;
57565;SDS011;43401;43.788;-0.712;2022-07-03T16:18:46;4.82;;;1.40;;
57565;SDS011;43401;43.788;-0.712;2022-07-03T16:21:15;9.15;;;1.15;;
57565;SDS011;43401;43.788;-0.712;2022-07-03T16:23:44;2.60;;;0.90;;